Terminal Aerodrome Forecast
Issued by NWS

Home | Current Version | Previous Version | Text Only | Print | Product List | Glossary On
Versions: 1 2 3 4 5 6 7 8 9 10
293
FTUS45 KRIW 241720
TAFJAC
TAF
KJAC 241720Z 2418/2518 20008KT P6SM VCSH SCT020 BKN035
     FM241900 19008KT 6SM -SHRA SCT015 OVC025
     FM242300 23010G15KT P6SM VCSH SCT020 BKN030
     FM250300 21009KT 3SM -SHSN SCT009 OVC017
     FM251600 29007KT P6SM VCSH SCT020 BKN035
      AMD LTD TO CLD VIS AND WIND=

USA.gov is the U.S. government's official web portal to all federal, state and local government web resources and services.